createdAt,value
2019-06-01T00:01:40.376Z,100524.67
2019-06-01T00:07:26.229Z,100533.34
2019-06-01T00:09:55.549Z,100531.50
2019-06-01T00:15:20.470Z,100533.20
2019-06-01T00:17:50.093Z,100532.92
2019-06-01T00:20:59.000Z,100547.02
2019-06-01T00:23:28.909Z,100544.41
2019-06-01T00:25:58.370Z,100547.59
2019-06-01T00:28:27.780Z,100565.66
2019-06-01T00:30:57.142Z,100557.10
2019-06-01T00:33:26.738Z,100556.47
2019-06-01T00:35:56.098Z,100562.00
2019-06-01T00:38:25.455Z,100565.48
2019-06-01T00:40:54.818Z,100561.73
2019-06-01T00:44:03.512Z,100560.31
2019-06-01T00:52:35.637Z,100572.36
2019-06-01T00:55:45.935Z,100579.40
2019-06-01T00:58:16.328Z,100576.77
2019-06-01T01:00:47.343Z,100580.25
2019-06-01T01:06:19.361Z,100580.13
2019-06-01T01:08:49.092Z,100589.45
2019-06-01T01:11:20.450Z,100588.22
2019-06-01T01:13:49.827Z,100590.47
2019-06-01T01:20:09.116Z,100582.87
2019-06-01T01:22:38.515Z,100590.63
2019-06-01T01:25:48.288Z,100588.30
2019-06-01T01:31:33.781Z,100599.83
2019-06-01T01:34:22.377Z,100603.03
2019-06-01T01:36:52.712Z,100604.91
2019-06-01T01:42:39.918Z,100604.34
2019-06-01T01:45:48.733Z,100599.73
2019-06-01T01:48:18.237Z,100608.46
2019-06-01T01:57:17.596Z,100600.28
2019-06-01T01:59:46.964Z,100597.27
2019-06-01T02:02:16.393Z,100615.67
2019-06-01T02:04:45.789Z,100613.04
2019-06-01T02:07:15.138Z,100615.31
2019-06-01T02:12:40.643Z,100615.41
2019-06-01T02:18:24.193Z,100609.84
2019-06-01T02:21:13.053Z,100619.89
2019-06-01T02:23:42.672Z,100626.55
2019-06-01T02:29:27.285Z,100626.44
2019-06-01T02:31:56.772Z,100630.08
2019-06-01T02:34:26.119Z,100630.47
2019-06-01T02:37:14.416Z,100626.99
2019-06-01T02:39:43.917Z,100625.30
2019-06-01T02:42:14.704Z,100628.30
2019-06-01T02:44:44.044Z,100628.89
2019-06-01T02:47:13.565Z,100629.54
2019-06-01T02:49:42.962Z,100630.94
2019-06-01T02:52:12.372Z,100637.50
2019-06-01T02:54:41.786Z,100648.95
2019-06-01T02:57:11.278Z,100636.66
2019-06-01T02:59:40.795Z,100645.39
2019-06-01T03:02:50.020Z,100639.58
2019-06-01T03:12:06.301Z,100662.79
2019-06-01T03:36:04.816Z,100648.61
2019-06-01T03:41:37.753Z,100660.55
2019-06-01T03:44:07.139Z,100659.71
2019-06-01T03:46:36.582Z,100655.39
2019-06-01T03:49:45.421Z,100658.02
2019-06-01T03:52:54.304Z,100661.71
2019-06-01T03:58:26.385Z,100663.49
2019-06-01T04:00:55.878Z,100663.58
2019-06-01T04:03:25.384Z,100658.77
2019-06-01T04:06:34.406Z,100670.06
2019-06-01T04:12:41.801Z,100673.27
2019-06-01T04:15:14.872Z,100667.80
2019-06-01T04:17:43.415Z,100676.54
2019-06-01T04:32:49.907Z,100681.49
2019-06-01T04:35:13.355Z,100670.30
2019-06-01T04:37:44.590Z,100673.84
2019-06-01T04:40:14.032Z,100675.50
2019-06-01T04:42:43.866Z,100668.69
2019-06-01T04:45:52.640Z,100660.74
2019-06-01T04:51:37.118Z,100656.53
2019-06-01T04:54:06.936Z,100665.67
2019-06-01T04:59:40.046Z,100678.20
2019-06-01T05:02:56.576Z,100679.22
2019-06-01T05:05:21.141Z,100667.58
2019-06-01T05:07:50.488Z,100672.30
2019-06-01T05:10:59.170Z,100664.12
2019-06-01T05:16:42.882Z,100681.26
2019-06-01T05:19:12.320Z,100675.27
2019-06-01T05:21:43.421Z,100678.05
2019-06-01T05:24:13.012Z,100681.23
2019-06-01T05:26:42.431Z,100673.92
2019-06-01T05:29:11.901Z,100675.48
2019-06-01T05:31:41.514Z,100648.59
2019-06-01T05:34:11.821Z,100684.97
2019-06-01T05:36:42.090Z,100690.34
2019-06-01T05:39:50.892Z,100679.61
2019-06-01T05:42:20.276Z,100681.73
2019-06-01T05:45:29.126Z,100677.58
2019-06-01T05:47:58.510Z,100678.63
2019-06-01T05:50:27.986Z,100681.93
2019-06-01T05:52:57.399Z,100674.69
2019-06-01T05:55:57.098Z,100684.55
2019-06-01T05:58:29.261Z,100675.54
2019-06-01T06:00:58.352Z,100687.30
2019-06-01T06:03:40.120Z,100678.62
2019-06-01T06:05:59.792Z,100678.30
2019-06-01T06:08:29.187Z,100678.44
2019-06-01T06:10:58.621Z,100682.22
2019-06-01T06:13:28.409Z,100676.05
2019-06-01T06:15:58.012Z,100678.34
2019-06-01T06:19:06.921Z,100677.55
2019-06-01T06:24:45.083Z,100673.94
2019-06-01T06:27:53.741Z,100678.60
2019-06-01T06:31:02.442Z,100686.06
2019-06-01T06:36:46.799Z,100684.37
2019-06-01T06:42:26.509Z,100671.96
2019-06-01T06:44:55.925Z,100681.00
2019-06-01T06:53:29.859Z,100677.25
2019-06-01T06:56:05.060Z,100676.31
2019-06-01T06:59:14.424Z,100680.65
2019-06-01T07:01:44.147Z,100684.36
2019-06-01T07:04:13.644Z,100690.17
2019-06-01T07:06:43.112Z,100687.84
2019-06-01T07:09:51.833Z,100683.68
2019-06-01T07:13:00.851Z,100690.16
2019-06-01T07:15:49.895Z,100690.19
2019-06-01T07:18:59.724Z,100689.35
2019-06-01T07:21:29.600Z,100693.30
2019-06-01T07:23:59.002Z,100692.64
2019-06-01T07:27:07.872Z,100689.09
2019-06-01T07:35:22.621Z,100677.44
2019-06-01T07:37:52.105Z,100672.06
2019-06-01T07:40:22.961Z,100671.22
2019-06-01T07:42:53.078Z,100671.58
2019-06-01T07:46:02.152Z,100675.84
2019-06-01T07:51:45.991Z,100678.13
2019-06-01T07:54:15.685Z,100672.80
2019-06-01T07:56:47.181Z,100659.79
2019-06-01T08:02:12.334Z,100676.88
2019-06-01T08:10:48.049Z,100675.88
2019-06-01T08:16:27.989Z,100669.34
2019-06-01T08:19:16.253Z,100659.25
2019-06-01T08:21:46.052Z,100670.61
2019-06-01T08:27:26.578Z,100675.69
2019-06-01T08:33:10.557Z,100674.00
2019-06-01T08:35:40.131Z,100667.89
2019-06-01T08:41:46.193Z,100666.92
2019-06-01T08:47:31.978Z,100671.76
2019-06-01T08:50:02.967Z,100673.18
2019-06-01T08:53:11.845Z,100668.06
2019-06-01T08:55:41.319Z,100668.61
2019-06-01T08:58:50.143Z,100674.14
2019-06-01T09:01:19.684Z,100674.03
2019-06-01T09:03:50.168Z,100671.59
2019-06-01T09:06:19.691Z,100661.70
2019-06-01T09:08:49.047Z,100674.06
2019-06-01T09:11:18.592Z,100665.14
2019-06-01T09:13:47.986Z,100675.35
2019-06-01T09:16:36.357Z,100672.83
2019-06-01T09:19:46.087Z,100676.31
2019-06-01T09:22:15.596Z,100677.03
2019-06-01T09:24:44.980Z,100671.59
2019-06-01T09:27:14.399Z,100681.58
2019-06-01T09:29:44.772Z,100675.56
2019-06-01T09:32:15.194Z,100675.21
2019-06-01T09:34:44.601Z,100673.23
2019-06-01T09:43:31.117Z,100669.66
2019-06-01T09:46:12.146Z,100663.70
2019-06-01T09:48:41.913Z,100660.61
2019-06-01T09:51:11.281Z,100657.63
2019-06-01T09:53:40.789Z,100658.11
2019-06-01T09:56:49.530Z,100658.36
2019-06-01T09:59:18.886Z,100662.62
2019-06-01T10:02:28.120Z,100648.86
2019-06-01T10:04:59.338Z,100650.97
2019-06-01T10:07:29.210Z,100661.34
2019-06-01T10:10:39.177Z,100648.56
2019-06-01T10:19:11.660Z,100646.36
2019-06-01T10:22:00.501Z,100645.90
2019-06-01T10:25:09.603Z,100644.18
2019-06-01T10:27:39.476Z,100641.03
2019-06-01T10:33:22.843Z,100646.86
2019-06-01T10:35:52.283Z,100653.09
2019-06-01T10:38:21.672Z,100655.59
2019-06-01T10:41:31.247Z,100636.55
2019-06-01T10:47:10.398Z,100651.94
2019-06-01T10:49:40.137Z,100648.88
2019-06-01T10:52:09.711Z,100652.05
2019-06-01T10:57:13.512Z,100648.76
2019-06-01T11:00:37.642Z,100632.98
2019-06-01T11:02:53.613Z,100629.59
2019-06-01T11:05:23.021Z,100638.61
2019-06-01T11:07:52.521Z,100640.31
2019-06-01T11:10:43.190Z,100627.83
2019-06-01T11:13:13.927Z,100627.05
2019-06-01T11:15:43.371Z,100635.67
2019-06-01T11:18:14.020Z,100637.13
2019-06-01T11:24:12.096Z,100620.64
2019-06-01T11:26:43.890Z,100619.67
2019-06-01T11:29:14.081Z,100627.33
2019-06-01T11:32:22.991Z,100620.87
2019-06-01T11:38:02.274Z,100625.77
2019-06-01T11:40:31.881Z,100613.55
2019-06-01T11:43:01.409Z,100622.98
2019-06-01T11:48:27.412Z,100611.90
2019-06-01T11:56:53.404Z,100609.45
2019-06-01T11:59:22.901Z,100605.42
2019-06-01T12:01:52.357Z,100602.42
2019-06-01T12:04:22.585Z,100597.06
2019-06-01T12:07:31.264Z,100592.00
2019-06-01T12:10:00.765Z,100590.78
2019-06-01T12:15:44.478Z,100589.53
2019-06-01T12:21:30.061Z,100580.33
2019-06-01T12:23:59.392Z,100585.59
2019-06-01T12:29:24.250Z,100577.45
2019-06-01T12:31:53.777Z,100577.64
2019-06-01T12:35:03.429Z,100573.86
2019-06-01T12:40:48.625Z,100574.41
2019-06-01T12:43:18.022Z,100568.64
2019-06-01T12:45:47.895Z,100570.41
2019-06-01T12:48:19.446Z,100566.82
2019-06-01T12:51:28.164Z,100561.77
2019-06-01T12:54:16.725Z,100556.83
2019-06-01T12:56:47.799Z,100552.53
2019-06-01T12:59:18.256Z,100552.25
2019-06-01T13:02:07.399Z,100547.91
2019-06-01T13:13:18.893Z,100541.75
2019-06-01T13:15:49.360Z,100546.16
2019-06-01T13:18:20.430Z,100532.80
2019-06-01T13:20:49.945Z,100525.41
2019-06-01T13:23:19.339Z,100526.09
2019-06-01T13:25:49.692Z,100517.23
2019-06-01T13:28:28.950Z,100525.87
2019-06-01T13:30:52.976Z,100514.10
2019-06-01T13:34:02.431Z,100504.28
2019-06-01T13:39:20.603Z,100506.86
2019-06-01T13:41:51.457Z,100509.52
2019-06-01T13:44:22.300Z,100513.90
2019-06-01T13:46:51.771Z,100510.42
2019-06-01T13:49:21.701Z,100506.27
2019-06-01T13:52:30.723Z,100507.41
2019-06-01T13:58:09.586Z,100502.00
2019-06-01T14:01:19.528Z,100502.00
2019-06-01T14:03:49.416Z,100507.39
2019-06-01T14:06:20.356Z,100504.80
2019-06-01T14:08:51.041Z,100498.53
2019-06-01T14:14:17.278Z,100494.91
2019-06-01T14:16:47.535Z,100489.50
2019-06-01T14:19:18.373Z,100484.63
2019-06-01T14:21:47.891Z,100482.33
2019-06-01T14:24:19.893Z,100485.76
2019-06-01T14:26:50.081Z,100485.31
2019-06-01T14:29:19.566Z,100484.33
2019-06-01T14:31:50.473Z,100489.73
2019-06-01T14:34:20.463Z,100482.75
2019-06-01T14:37:29.127Z,100474.79
2019-06-01T14:39:59.526Z,100470.09
2019-06-01T14:42:32.526Z,100473.14
2019-06-01T14:45:02.156Z,100469.58
2019-06-01T14:47:31.688Z,100473.66
2019-06-01T14:50:40.593Z,100470.29
2019-06-01T14:53:10.079Z,100475.88
2019-06-01T14:55:58.782Z,100463.86
2019-06-01T14:58:28.177Z,100471.39
2019-06-01T15:00:58.544Z,100467.95
2019-06-01T15:06:41.100Z,100472.62
2019-06-01T15:15:26.632Z,100463.69
2019-06-01T15:17:56.138Z,100456.33
2019-06-01T15:24:02.342Z,100458.31
2019-06-01T15:26:32.678Z,100451.30
2019-06-01T15:29:03.174Z,100458.94
2019-06-01T15:32:12.194Z,100458.06
2019-06-01T15:34:42.049Z,100453.39
2019-06-01T15:37:11.441Z,100453.76
2019-06-01T15:39:41.019Z,100457.41
2019-06-01T15:45:25.014Z,100449.67
2019-06-01T15:51:42.624Z,100433.66
2019-06-01T16:03:21.046Z,100435.06
2019-06-01T16:12:07.229Z,100431.09
2019-06-01T16:15:16.730Z,100432.63
2019-06-01T16:17:46.527Z,100425.73
2019-06-01T16:23:46.203Z,100414.62
2019-06-01T16:26:13.240Z,100424.32
2019-06-01T16:28:33.520Z,100420.03
2019-06-01T16:31:04.728Z,100420.27
2019-06-01T16:34:13.885Z,100419.74
2019-06-01T16:39:58.371Z,100411.98
2019-06-01T16:48:19.545Z,100408.98
2019-06-01T16:50:48.946Z,100410.06
2019-06-01T16:53:18.378Z,100408.49
2019-06-01T16:56:27.518Z,100415.81
2019-06-01T17:01:59.009Z,100415.23
2019-06-01T17:07:49.442Z,100415.62
2019-06-01T17:16:34.807Z,100418.77
2019-06-01T17:22:31.894Z,100410.63
2019-06-01T17:25:01.832Z,100411.59
2019-06-01T17:36:24.699Z,100407.59
2019-06-01T17:38:54.188Z,100417.34
2019-06-01T17:41:23.649Z,100402.89
2019-06-01T17:43:53.136Z,100402.08
2019-06-01T17:46:22.499Z,100402.08
2019-06-01T17:49:31.209Z,100399.17
2019-06-01T17:58:29.293Z,100397.23
2019-06-01T18:01:41.517Z,100397.59
2019-06-01T18:04:10.055Z,100396.71
2019-06-01T18:06:41.253Z,100394.55
2019-06-01T18:09:50.293Z,100401.78
2019-06-01T18:12:19.970Z,100398.02
2019-06-01T18:14:49.856Z,100407.27
2019-06-01T18:17:20.315Z,100401.88
2019-06-01T18:20:29.024Z,100399.22
2019-06-01T18:26:00.577Z,100394.30
2019-06-01T18:31:59.243Z,100392.27
2019-06-01T18:34:29.249Z,100391.38
2019-06-01T18:36:59.068Z,100387.79
2019-06-01T18:40:07.968Z,100386.81
2019-06-01T18:48:41.064Z,100385.56
2019-06-01T18:51:41.317Z,100385.38
2019-06-01T18:57:23.373Z,100388.66
2019-06-01T18:59:53.163Z,100386.48
2019-06-01T19:02:22.758Z,100384.61
2019-06-01T19:05:31.872Z,100386.61
2019-06-01T19:08:01.438Z,100390.11
2019-06-01T19:10:31.358Z,100386.27
2019-06-01T19:13:00.991Z,100395.73
2019-06-01T19:24:53.466Z,100395.63
2019-06-01T19:33:40.465Z,100393.87
2019-06-01T19:39:45.634Z,100401.09
2019-06-01T19:42:15.524Z,100399.63
2019-06-01T19:45:29.331Z,100399.80
2019-06-01T19:47:58.210Z,100402.31
2019-06-01T19:50:27.794Z,100400.81
2019-06-01T19:53:36.533Z,100401.98
2019-06-01T19:56:06.106Z,100398.35
2019-06-01T19:59:16.070Z,100392.08
2019-06-01T20:01:46.276Z,100392.17
2019-06-01T20:04:16.697Z,100387.48
2019-06-01T20:06:46.097Z,100390.03
2019-06-01T20:09:15.465Z,100387.67
2019-06-01T20:12:00.582Z,100385.75
2019-06-01T20:14:16.559Z,100392.09
2019-06-01T20:16:46.024Z,100390.30
2019-06-01T20:19:15.701Z,100391.55
2019-06-01T20:22:24.409Z,100393.62
2019-06-01T20:24:53.859Z,100395.84
2019-06-01T20:27:23.394Z,100391.44
2019-06-01T20:29:53.189Z,100397.28
2019-06-01T20:32:23.469Z,100392.86
2019-06-01T20:37:59.174Z,100392.73
2019-06-01T20:49:54.175Z,100402.23
2019-06-01T20:55:27.050Z,100404.00
2019-06-01T20:57:56.509Z,100402.22
2019-06-01T21:01:05.358Z,100407.27
2019-06-01T21:03:34.771Z,100405.01
2019-06-01T21:06:43.542Z,100412.38
2019-06-01T21:09:13.694Z,100416.67
2019-06-01T21:11:44.116Z,100416.80
2019-06-01T21:14:52.990Z,100422.46
2019-06-01T21:17:24.460Z,100422.08
2019-06-01T21:19:54.113Z,100415.82
2019-06-01T21:22:24.842Z,100431.02
2019-06-01T21:24:55.300Z,100415.70
2019-06-01T21:33:26.242Z,100434.16
2019-06-01T21:35:53.569Z,100424.91
2019-06-01T21:39:02.428Z,100431.65
2019-06-01T21:44:46.849Z,100430.55
2019-06-01T21:47:28.238Z,100433.31
2019-06-01T21:49:57.843Z,100432.36
2019-06-01T21:52:27.348Z,100434.75
2019-06-01T21:54:56.856Z,100435.12
2019-06-01T21:57:26.676Z,100436.19
2019-06-01T22:00:08.489Z,100438.13
2019-06-01T22:05:27.457Z,100447.13
2019-06-01T22:11:11.655Z,100445.92
2019-06-01T22:13:41.198Z,100452.53
2019-06-01T22:16:10.608Z,100453.70
2019-06-01T22:18:41.950Z,100459.25
2019-06-01T22:21:11.490Z,100456.12
2019-06-01T22:23:40.889Z,100457.67
2019-06-01T22:26:10.433Z,100464.48
2019-06-01T22:31:48.525Z,100474.80
2019-06-01T22:34:18.595Z,100473.81
2019-06-01T22:37:28.801Z,100472.59
2019-06-01T22:46:13.953Z,100482.81
2019-06-01T22:51:52.468Z,100491.59
2019-06-01T22:57:43.280Z,100487.56
2019-06-01T23:03:08.749Z,100488.34
2019-06-01T23:05:38.298Z,100490.67
2019-06-01T23:08:47.133Z,100488.98
2019-06-01T23:11:17.083Z,100495.58
2019-06-01T23:13:53.524Z,100497.31
2019-06-01T23:16:18.567Z,100499.23
2019-06-01T23:18:47.918Z,100501.44
2019-06-01T23:27:14.501Z,100506.34
2019-06-01T23:29:43.941Z,100513.00
2019-06-01T23:32:13.869Z,100510.42
2019-06-01T23:37:51.449Z,100516.55
2019-06-01T23:40:21.011Z,100520.27
2019-06-01T23:45:46.705Z,100519.65
2019-06-01T23:48:16.140Z,100513.53
2019-06-01T23:51:25.368Z,100512.07
